Time;durP1;ratioP1;P1;durP2;ratioP2;P2;SDS_P1;SDS_P2;PMS_P1;PMS_P2;Temp;Humidity;BMP_temperature;BMP_pressure;BME280_temperature;BME280_humidity;BME280_pressure;Samples;Min_cycle;Max_cycle;Signal;HPM_P1;HPM_P2
2023/03/24 00:00:36;;;;;;;1.00;1.00;;;;;11.30;95160.00;;;;5033947;28;20213;-58
2023/03/24 00:03:03;;;;;;;0.53;0.53;;;;;11.30;95162.00;;;;5034291;28;20189;-58
2023/03/24 00:05:31;;;;;;;0.67;0.67;;;;;11.20;95161.00;;;;5034210;28;20193;-58
2023/03/24 00:08:01;;;;;;;1.03;1.03;;;;;11.20;95159.00;;;;5033851;28;20209;-58
2023/03/24 00:10:33;;;;;;;1.13;1.13;;;;;11.20;95153.00;;;;5033889;28;20609;-58
2023/03/24 00:13:01;;;;;;;0.80;0.80;;;;;11.20;95145.00;;;;5034162;28;20232;-58
2023/03/24 00:15:30;;;;;;;0.60;0.60;;;;;11.20;95149.00;;;;5032453;28;20299;-58
2023/03/24 00:17:59;;;;;;;1.53;1.43;;;;;11.30;95140.00;;;;5033396;28;20227;-59
2023/03/24 00:20:27;;;;;;;0.80;0.80;;;;;11.20;95132.00;;;;5033724;28;20623;-59
2023/03/24 00:22:57;;;;;;;0.70;0.70;;;;;11.10;95134.00;;;;5032426;28;20649;-59
2023/03/24 00:25:28;;;;;;;0.60;0.60;;;;;11.10;95125.00;;;;5032386;28;20635;-58
2023/03/24 00:27:56;;;;;;;0.60;0.60;;;;;11.10;95134.00;;;;5033845;28;20287;-58
2023/03/24 00:30:24;;;;;;;0.73;0.73;;;;;11.20;95128.00;;;;5033554;28;20185;-60
2023/03/24 00:32:52;;;;;;;0.83;0.83;;;;;11.30;95126.00;;;;5033536;28;20193;-58
2023/03/24 00:35:22;;;;;;;0.50;0.50;;;;;11.40;95115.00;;;;5033752;28;20193;-58
2023/03/24 00:37:50;;;;;;;0.60;0.60;;;;;11.40;95117.00;;;;5033710;28;20688;-58
2023/03/24 00:40:19;;;;;;;2.00;1.47;;;;;11.30;95117.00;;;;5031971;28;20220;-58
2023/03/24 00:42:48;;;;;;;0.80;0.80;;;;;11.30;95121.00;;;;5034098;28;20196;-59
2023/03/24 00:45:21;;;;;;;1.53;1.43;;;;;11.50;95120.00;;;;5033388;28;20197;-59
2023/03/24 00:47:52;;;;;;;1.00;1.00;;;;;11.60;95109.00;;;;5032068;28;20251;-59
2023/03/24 00:50:25;;;;;;;1.20;1.20;;;;;11.50;95102.00;;;;5033885;28;20180;-58
2023/03/24 00:52:53;;;;;;;0.83;0.83;;;;;11.40;95092.00;;;;5033489;28;20211;-59
2023/03/24 00:55:21;;;;;;;1.10;1.10;;;;;11.40;95088.00;;;;5031975;28;20205;-58
2023/03/24 00:57:49;;;;;;;0.53;0.53;;;;;11.40;95081.00;;;;5033097;28;20300;-58
2023/03/24 01:00:19;;;;;;;0.60;0.60;;;;;11.30;95084.00;;;;5033038;28;20221;-59
2023/03/24 01:02:52;;;;;;;1.27;1.27;;;;;11.40;95073.00;;;;5033388;28;20264;-57
2023/03/24 01:05:22;;;;;;;1.00;1.00;;;;;11.40;95080.00;;;;5033596;28;20585;-58
2023/03/24 01:07:51;;;;;;;0.70;0.70;;;;;11.30;95070.00;;;;5033187;28;20583;-59
2023/03/24 01:10:24;;;;;;;1.97;0.80;;;;;11.50;95081.00;;;;5033058;28;20311;-58
2023/03/24 01:12:53;;;;;;;0.70;0.70;;;;;11.50;95078.00;;;;5033113;28;20192;-58
2023/03/24 01:15:25;;;;;;;1.00;1.00;;;;;11.50;95079.00;;;;5034054;28;20203;-60
2023/03/24 01:17:53;;;;;;;0.80;0.80;;;;;11.40;95077.00;;;;5033160;28;20300;-59
2023/03/24 01:20:22;;;;;;;0.93;0.93;;;;;11.30;95065.00;;;;5032859;28;20225;-58
2023/03/24 01:22:51;;;;;;;0.87;0.87;;;;;11.20;95043.00;;;;5032951;28;20199;-59
2023/03/24 01:25:23;;;;;;;0.60;0.60;;;;;11.10;95043.00;;;;5033473;28;20189;-58
2023/03/24 01:27:52;;;;;;;0.60;0.60;;;;;11.30;95051.00;;;;5034447;28;20224;-59
2023/03/24 01:30:21;;;;;;;0.90;0.90;;;;;11.20;95056.00;;;;5037437;28;20189;-59
2023/03/24 01:32:49;;;;;;;0.67;0.67;;;;;11.20;95043.00;;;;5037402;28;20275;-58
2023/03/24 01:35:17;;;;;;;0.87;0.87;;;;;11.00;95058.00;;;;5036816;28;20224;-59
2023/03/24 01:37:46;;;;;;;1.47;1.37;;;;;11.00;95050.00;;;;5035494;28;20225;-59
2023/03/24 01:40:17;;;;;;;0.70;0.70;;;;;10.90;95041.00;;;;5036711;28;20217;-58
2023/03/24 01:42:45;;;;;;;0.83;0.83;;;;;10.90;95035.00;;;;5037258;28;20189;-57
2023/03/24 01:45:43;;;;;;;0.70;0.70;;;;;10.90;95029.00;;;;5036629;28;20192;-59
2023/03/24 01:48:14;;;;;;;1.00;1.00;;;;;10.80;95032.00;;;;5036307;28;20225;-58
2023/03/24 01:50:45;;;;;;;0.77;0.77;;;;;10.90;95035.00;;;;5036494;28;20181;-58
2023/03/24 01:53:14;;;;;;;0.50;0.50;;;;;11.00;95029.00;;;;5036752;28;20601;-58
2023/03/24 01:55:45;;;;;;;0.70;0.70;;;;;11.10;95029.00;;;;5035144;28;20264;-58
2023/03/24 01:58:13;;;;;;;0.83;0.83;;;;;11.00;95032.00;;;;5036394;28;20217;-59
2023/03/24 02:00:41;;;;;;;0.70;0.70;;;;;11.00;95029.00;;;;5036548;28;20299;-58
2023/03/24 02:03:14;;;;;;;0.90;0.90;;;;;10.90;95021.00;;;;5036292;28;20189;-60
2023/03/24 02:05:45;;;;;;;0.60;0.60;;;;;10.80;95019.00;;;;5036537;28;20189;-58
2023/03/24 02:08:19;;;;;;;5.07;1.77;;;;;10.80;95022.00;;;;5036141;28;20220;-58
2023/03/24 02:10:48;;;;;;;0.60;0.60;;;;;10.70;95027.00;;;;5036791;28;20179;-59
2023/03/24 02:13:16;;;;;;;1.17;1.07;;;;;10.70;95026.00;;;;5036111;28;20216;-58
2023/03/24 02:15:52;;;;;;;1.10;1.10;;;;;10.80;95035.00;;;;5036085;28;20683;-59
2023/03/24 02:18:26;;;;;;;1.37;1.37;;;;;10.80;95027.00;;;;5036206;28;20223;-58
2023/03/24 02:21:26;;;;;;;0.77;0.77;;;;;10.80;95030.00;;;;5035950;28;20295;-58
2023/03/24 02:24:27;;;;;;;0.87;0.87;;;;;10.70;95037.00;;;;5036460;28;20189;-57
2023/03/24 02:27:08;;;;;;;1.40;1.30;;;;;10.70;95042.00;;;;5036346;28;20185;-58
2023/03/24 02:30:07;;;;;;;0.90;0.90;;;;;10.60;95037.00;;;;5034562;28;20239;-59
2023/03/24 02:33:02;;;;;;;0.70;0.70;;;;;10.60;95029.00;;;;5036317;28;20192;-58
2023/03/24 02:35:45;;;;;;;0.80;0.80;;;;;10.60;95022.00;;;;5036068;28;20185;-59
2023/03/24 02:38:38;;;;;;;0.77;0.77;;;;;10.70;95016.00;;;;5035776;28;20225;-59
2023/03/24 02:41:15;;;;;;;0.60;0.60;;;;;10.70;95019.00;;;;5035709;28;20196;-59
2023/03/24 02:43:52;;;;;;;1.00;1.00;;;;;10.70;95013.00;;;;5035580;28;20185;-58
2023/03/24 02:46:24;;;;;;;4.13;1.67;;;;;10.70;95007.00;;;;5036107;28;20545;-59
2023/03/24 02:49:09;;;;;;;1.27;1.20;;;;;10.80;94995.00;;;;5035329;28;20745;-59
2023/03/24 02:51:44;;;;;;;1.13;1.13;;;;;10.80;94992.00;;;;5035706;28;20177;-59
2023/03/24 02:54:14;;;;;;;1.30;1.27;;;;;10.80;94989.00;;;;5035367;28;20191;-59
2023/03/24 02:56:47;;;;;;;1.00;1.00;;;;;10.80;94990.00;;;;5035373;28;20224;-58
2023/03/24 02:59:21;;;;;;;0.50;0.50;;;;;10.70;94991.00;;;;5035228;28;20220;-58
2023/03/24 03:01:56;;;;;;;0.87;0.87;;;;;10.70;94982.00;;;;5035464;28;20664;-58
2023/03/24 03:04:31;;;;;;;0.90;0.90;;;;;10.70;94976.00;;;;5035726;28;20626;-58
2023/03/24 03:07:05;;;;;;;0.70;0.70;;;;;10.70;94972.00;;;;5035098;28;20624;-58
2023/03/24 03:09:36;;;;;;;0.67;0.67;;;;;10.70;94978.00;;;;5033854;28;20239;-58
2023/03/24 03:12:08;;;;;;;0.63;0.63;;;;;10.60;94973.00;;;;5035158;28;20624;-58
2023/03/24 03:14:40;;;;;;;1.07;1.07;;;;;10.50;94971.00;;;;5035035;28;20185;-58
2023/03/24 03:17:13;;;;;;;0.97;0.97;;;;;10.60;94974.00;;;;5035195;28;20185;-58
2023/03/24 03:19:43;;;;;;;1.47;1.43;;;;;10.90;94980.00;;;;5035108;28;20517;-58
2023/03/24 03:22:15;;;;;;;1.00;1.00;;;;;10.90;94978.00;;;;5034908;28;20657;-58
2023/03/24 03:24:49;;;;;;;0.90;0.90;;;;;10.90;94965.00;;;;5035126;28;20181;-58
2023/03/24 03:27:21;;;;;;;0.90;0.90;;;;;11.00;94981.00;;;;5035212;28;20216;-58
2023/03/24 03:29:54;;;;;;;2.43;1.73;;;;;11.00;94975.00;;;;5035019;28;20185;-58
2023/03/24 03:32:27;;;;;;;2.17;1.97;;;;;10.90;94972.00;;;;5034933;28;20193;-57
2023/03/24 03:35:01;;;;;;;0.77;0.77;;;;;11.00;94977.00;;;;5034669;28;20644;-57
2023/03/24 03:37:34;;;;;;;0.70;0.70;;;;;11.00;94979.00;;;;5033303;28;20715;-59
2023/03/24 03:40:08;;;;;;;1.33;1.07;;;;;11.10;94988.00;;;;5034980;28;20205;-57
2023/03/24 03:42:37;;;;;;;0.83;0.83;;;;;11.10;94982.00;;;;5034461;28;20235;-58
2023/03/24 03:45:08;;;;;;;0.80;0.73;;;;;11.10;94979.00;;;;5034434;28;20201;-57
2023/03/24 03:47:36;;;;;;;1.17;1.17;;;;;11.10;94979.00;;;;5034396;28;20588;-57
2023/03/24 03:50:05;;;;;;;0.80;0.80;;;;;11.20;94978.00;;;;5034580;28;20201;-59
2023/03/24 03:52:32;;;;;;;0.60;0.60;;;;;11.20;94982.00;;;;5033809;28;20197;-58
2023/03/24 03:55:01;;;;;;;1.30;1.20;;;;;11.20;94972.00;;;;5034213;28;20206;-58
2023/03/24 03:57:28;;;;;;;1.20;1.17;;;;;11.30;94969.00;;;;5034102;28;20303;-59
2023/03/24 03:59:57;;;;;;;1.23;1.13;;;;;11.30;94967.00;;;;5034588;28;20189;-59
2023/03/24 04:02:37;;;;;;;0.63;0.63;;;;;11.40;94959.00;;;;5032790;28;20291;-58
2023/03/24 04:05:26;;;;;;;0.70;0.70;;;;;11.40;94958.00;;;;5034116;28;20181;-59
2023/03/24 04:08:25;;;;;;;0.60;0.60;;;;;11.20;94960.00;;;;5034162;28;20719;-60
2023/03/24 04:11:25;;;;;;;0.67;0.67;;;;;11.20;94953.00;;;;5012617;28;20208;-59
2023/03/24 04:14:06;;;;;;;1.27;1.03;;;;;11.30;94954.00;;;;5030839;28;20221;-59
2023/03/24 04:16:44;;;;;;;0.90;0.90;;;;;11.20;94951.00;;;;5034372;28;20185;-59
2023/03/24 04:19:28;;;;;;;1.07;1.07;;;;;11.10;94958.00;;;;5033753;28;20216;-58
2023/03/24 04:22:17;;;;;;;0.57;0.57;;;;;11.10;94974.00;;;;5033960;28;20572;-58
2023/03/24 04:24:50;;;;;;;2.00;1.23;;;;;10.90;94966.00;;;;5033987;28;20495;-58
2023/03/24 04:27:26;;;;;;;0.80;0.80;;;;;10.60;94968.00;;;;5033827;28;20255;-58
2023/03/24 04:30:01;;;;;;;0.80;0.80;;;;;10.50;94958.00;;;;5033585;28;20231;-59
2023/03/24 04:32:40;;;;;;;0.60;0.60;;;;;10.70;94952.00;;;;5034163;28;20184;-59
2023/03/24 04:35:13;;;;;;;0.73;0.73;;;;;10.80;94964.00;;;;5033849;28;20182;-59
2023/03/24 04:37:41;;;;;;;0.83;0.83;;;;;10.80;94977.00;;;;5033530;28;20225;-59
2023/03/24 04:40:13;;;;;;;0.90;0.90;;;;;10.80;94978.00;;;;5033373;28;20197;-59
2023/03/24 04:42:45;;;;;;;1.00;1.00;;;;;10.60;94979.00;;;;5033640;28;20185;-57
2023/03/24 04:45:14;;;;;;;0.40;0.40;;;;;10.40;94987.00;;;;5033357;28;20196;-57
2023/03/24 04:47:47;;;;;;;0.80;0.80;;;;;10.60;95008.00;;;;5033016;28;20270;-57
2023/03/24 04:50:29;;;;;;;0.90;0.90;;;;;10.30;95014.00;;;;5056914;22;20232;-58
2023/03/24 04:52:56;;;;;;;0.80;0.80;;;;;10.30;95020.00;;;;5032020;28;20651;-58
2023/03/24 04:55:44;;;;;;;0.67;0.67;;;;;10.30;95034.00;;;;5033272;28;20246;-56
2023/03/24 04:58:11;;;;;;;0.87;0.87;;;;;10.40;95040.00;;;;5033543;28;20185;-56
2023/03/24 05:00:38;;;;;;;0.80;0.80;;;;;10.50;95049.00;;;;5016652;28;20585;-56
2023/03/24 05:03:07;;;;;;;1.00;1.00;;;;;10.60;95065.00;;;;5013135;28;20244;-58
2023/03/24 05:05:35;;;;;;;0.77;0.77;;;;;10.70;95055.00;;;;5013711;28;20189;-56
2023/03/24 05:08:02;;;;;;;1.37;1.27;;;;;10.80;95062.00;;;;5013892;28;20204;-56
2023/03/24 05:10:30;;;;;;;0.50;0.50;;;;;10.80;95057.00;;;;5013265;28;20665;-56
2023/03/24 05:12:57;;;;;;;0.60;0.60;;;;;10.90;95068.00;;;;5013619;28;20205;-58
2023/03/24 05:15:25;;;;;;;0.50;0.50;;;;;10.80;95053.00;;;;5013343;28;20204;-57
2023/03/24 05:17:52;;;;;;;0.60;0.60;;;;;11.00;95062.00;;;;5013382;28;20280;-57
2023/03/24 05:20:21;;;;;;;0.70;0.70;;;;;11.00;95067.00;;;;5013241;28;20220;-57
2023/03/24 05:22:49;;;;;;;0.50;0.50;;;;;11.10;95069.00;;;;5012036;28;20570;-57
2023/03/24 05:25:17;;;;;;;0.60;0.60;;;;;11.00;95074.00;;;;5013508;28;20650;-57
2023/03/24 05:27:45;;;;;;;1.10;1.10;;;;;11.10;95076.00;;;;5013394;28;20193;-56
2023/03/24 05:30:13;;;;;;;0.60;0.60;;;;;11.20;95065.00;;;;5013050;28;20213;-56
2023/03/24 05:32:41;;;;;;;0.70;0.70;;;;;11.30;95059.00;;;;5013663;28;20194;-57
2023/03/24 05:35:09;;;;;;;0.73;0.73;;;;;11.30;95062.00;;;;5013134;28;20202;-57
2023/03/24 05:37:38;;;;;;;0.93;0.93;;;;;11.30;95066.00;;;;5013102;28;20201;-56
2023/03/24 05:40:06;;;;;;;0.60;0.60;;;;;11.00;95064.00;;;;5013416;28;20221;-57
2023/03/24 05:42:34;;;;;;;0.80;0.80;;;;;11.00;95072.00;;;;5012956;28;20300;-57
2023/03/24 05:45:02;;;;;;;0.60;0.60;;;;;11.00;95072.00;;;;5013545;28;20201;-56
2023/03/24 05:47:29;;;;;;;0.70;0.70;;;;;11.10;95061.00;;;;5012990;28;20229;-57
2023/03/24 05:49:57;;;;;;;0.67;0.67;;;;;11.00;95065.00;;;;5011463;28;20236;-56
2023/03/24 05:52:24;;;;;;;1.30;1.07;;;;;11.00;95063.00;;;;5013209;28;20247;-57
2023/03/24 05:54:53;;;;;;;0.50;0.50;;;;;11.00;95071.00;;;;5013256;28;20189;-57
2023/03/24 05:57:21;;;;;;;1.00;1.00;;;;;11.00;95068.00;;;;5012894;28;20673;-57
2023/03/24 05:59:48;;;;;;;0.57;0.57;;;;;11.00;95073.00;;;;5012816;28;20224;-57
2023/03/24 06:02:15;;;;;;;0.80;0.80;;;;;11.10;95072.00;;;;5012767;28;20213;-57
2023/03/24 06:04:44;;;;;;;0.70;0.70;;;;;11.20;95059.00;;;;5012961;28;20243;-57
2023/03/24 06:07:13;;;;;;;0.80;0.80;;;;;11.20;95061.00;;;;5013076;28;20201;-57
2023/03/24 06:09:45;;;;;;;4.50;1.00;;;;;11.10;95064.00;;;;5013033;28;20217;-57
2023/03/24 06:12:15;;;;;;;0.63;0.63;;;;;11.20;95063.00;;;;5013005;28;20178;-57
2023/03/24 06:14:44;;;;;;;2.40;0.87;;;;;11.30;95063.00;;;;5013821;28;20189;-57
2023/03/24 06:17:13;;;;;;;0.70;0.70;;;;;11.40;95062.00;;;;5015038;28;20204;-57
2023/03/24 06:19:47;;;;;;;0.70;0.70;;;;;11.50;95063.00;;;;5016188;28;20631;-56
2023/03/24 06:22:15;;;;;;;0.80;0.80;;;;;11.60;95055.00;;;;5016451;28;20206;-57
2023/03/24 06:24:43;;;;;;;1.27;1.27;;;;;11.60;95062.00;;;;5016434;28;20202;-57
2023/03/24 06:27:10;;;;;;;0.93;0.93;;;;;11.70;95064.00;;;;5016152;28;20221;-57
2023/03/24 06:29:41;;;;;;;0.70;0.70;;;;;11.70;95064.00;;;;5014712;28;20216;-57
2023/03/24 06:32:08;;;;;;;0.60;0.60;;;;;11.90;95064.00;;;;5015458;28;20572;-57
2023/03/24 06:34:37;;;;;;;0.63;0.63;;;;;11.60;95065.00;;;;5015992;28;20224;-57
2023/03/24 06:37:05;;;;;;;0.80;0.80;;;;;11.50;95075.00;;;;5015903;28;20193;-57
2023/03/24 06:39:32;;;;;;;0.60;0.60;;;;;11.60;95069.00;;;;5015840;28;20224;-57
2023/03/24 06:42:00;;;;;;;1.00;0.90;;;;;11.60;95065.00;;;;5016052;28;20581;-57
2023/03/24 06:44:27;;;;;;;1.00;1.00;;;;;11.50;95069.00;;;;5015877;28;20193;-57
2023/03/24 06:46:56;;;;;;;0.67;0.67;;;;;11.30;95056.00;;;;5015978;28;20627;-57
2023/03/24 06:49:24;;;;;;;0.93;0.93;;;;;11.40;95070.00;;;;5015523;28;20598;-57
2023/03/24 06:51:51;;;;;;;0.70;0.70;;;;;11.50;95077.00;;;;5015919;28;20228;-56
2023/03/24 06:54:19;;;;;;;0.70;0.70;;;;;11.40;95079.00;;;;5015835;28;20189;-57
2023/03/24 06:56:46;;;;;;;0.97;0.97;;;;;11.20;95095.00;;;;5015828;28;20197;-57
2023/03/24 06:59:16;;;;;;;0.87;0.87;;;;;11.40;95107.00;;;;5015504;28;20224;-57
2023/03/24 07:01:44;;;;;;;0.90;0.90;;;;;11.00;95098.00;;;;5015554;28;20283;-57
2023/03/24 07:04:13;;;;;;;0.97;0.97;;;;;11.00;95092.00;;;;5015595;28;20189;-57
2023/03/24 07:06:41;;;;;;;0.90;0.90;;;;;10.90;95095.00;;;;5015435;28;20206;-56
2023/03/24 07:09:08;;;;;;;0.97;0.97;;;;;11.00;95110.00;;;;5015209;28;20214;-57
2023/03/24 07:11:36;;;;;;;0.60;0.60;;;;;10.90;95117.00;;;;5014061;28;20692;-56
2023/03/24 07:14:03;;;;;;;0.70;0.70;;;;;10.90;95116.00;;;;5015207;28;20194;-56
2023/03/24 07:16:30;;;;;;;0.73;0.70;;;11.50;99.90;10.90;95123.00;;;;5013885;28;20203;-57
2023/03/24 07:18:58;;;;;;;0.80;0.80;;;;;10.80;95120.00;;;;5013823;28;20694;-56
2023/03/24 07:21:27;;;;;;;0.80;0.80;;;;;10.80;95126.00;;;;5015077;28;20228;-57
2023/03/24 07:23:54;;;;;;;0.70;0.70;;;;;10.70;95118.00;;;;5013735;28;20204;-57
2023/03/24 07:26:22;;;;;;;0.77;0.77;;;;;10.80;95122.00;;;;5015142;28;20200;-56
2023/03/24 07:28:49;;;;;;;0.60;0.60;;;;;10.90;95119.00;;;;5014839;28;20224;-57
2023/03/24 07:31:17;;;;;;;0.70;0.70;;;;;10.90;95118.00;;;;5015225;28;20197;-57
2023/03/24 07:33:44;;;;;;;0.60;0.60;;;;;11.00;95116.00;;;;5015440;28;20255;-57
2023/03/24 07:36:12;;;;;;;0.67;0.67;;;;;10.90;95126.00;;;;5015006;28;20201;-57
2023/03/24 07:38:41;;;;;;;0.70;0.70;;;;;11.10;95131.00;;;;5015039;28;20209;-57
2023/03/24 07:41:08;;;;;;;1.17;1.17;;;;;11.00;95125.00;;;;5014654;28;20251;-56
2023/03/24 07:43:35;;;;;;;0.50;0.50;;;;;11.20;95119.00;;;;5014660;28;20220;-57
2023/03/24 07:46:03;;;;;;;0.97;0.93;;;;;11.30;95127.00;;;;5014847;28;20201;-58
2023/03/24 07:48:30;;;;;;;0.93;0.93;;;;;11.20;95128.00;;;;5014857;28;20205;-57
2023/03/24 07:50:58;;;;;;;0.80;0.80;;;;;11.30;95131.00;;;;5014424;28;20267;-57
2023/03/24 07:53:25;;;;;;;0.70;0.70;;;;;11.20;95139.00;;;;5014679;28;20200;-57
2023/03/24 07:55:54;;;;;;;0.90;0.90;;;;;11.20;95148.00;;;;5014696;28;20190;-58
2023/03/24 07:58:22;;;;;;;0.63;0.63;;;;;11.00;95155.00;;;;5013111;28;20608;-58
2023/03/24 08:00:49;;;;;;;0.60;0.60;;;;;10.90;95152.00;;;;5014464;28;20221;-57
2023/03/24 08:03:16;;;;;;;0.60;0.60;;;;;11.00;95149.00;;;;5014412;28;20217;-57
2023/03/24 08:05:45;;;;;;;0.77;0.77;;;;;11.10;95135.00;;;;5014175;28;20200;-58
2023/03/24 08:08:13;;;;;;;0.90;0.90;;;;;11.10;95132.00;;;;5014299;28;20617;-58
2023/03/24 08:10:41;;;;;;;1.33;1.20;;;;;11.10;95117.00;;;;5014196;28;20209;-57
2023/03/24 08:13:10;;;;;;;1.13;1.13;;;;;11.20;95113.00;;;;5014236;28;20211;-57
2023/03/24 08:15:38;;;;;;;0.77;0.77;;;;;11.30;95122.00;;;;5014125;28;20227;-58
2023/03/24 08:18:05;;;;;;;4.27;1.17;;;;;11.10;95116.00;;;;5014371;28;20189;-57
2023/03/24 08:20:33;;;;;;;0.60;0.60;;;;;11.30;95102.00;;;;5013968;28;20214;-58
2023/03/24 08:23:07;;;;;;;0.70;0.70;;;;;11.40;95082.00;;;;5013957;28;20688;-59
2023/03/24 08:25:35;;;;;;;0.60;0.60;;;12.10;99.90;11.50;95062.00;;;;5013096;28;20676;-57
2023/03/24 08:28:03;;;;;;;0.53;0.53;;;;;11.60;95059.00;;;;5013893;28;20198;-57
2023/03/24 08:30:31;;;;;;;0.50;0.50;;;12.30;99.30;11.70;95067.00;;;;5013850;28;20209;-58
2023/03/24 08:33:01;;;;;;;0.70;0.70;;;;;11.80;95050.00;;;;5013852;28;20193;-60
2023/03/24 08:35:31;;;;;;;0.70;0.70;;;12.40;99.80;11.70;95047.00;;;;5013774;28;20197;-57
2023/03/24 08:37:59;;;;;;;0.50;0.50;;;;;11.90;95088.00;;;;5013038;28;20649;-58
2023/03/24 08:40:30;;;;;;;0.60;0.60;;;12.50;99.70;11.90;95078.00;;;;5013891;28;20220;-57
2023/03/24 08:43:16;;;;;;;0.80;0.80;;;12.50;98.70;11.80;95073.00;;;;5012391;28;20217;-59
2023/03/24 08:45:44;;;;;;;0.80;0.80;;;12.60;99.90;12.00;95094.00;;;;5014329;28;20178;-57
2023/03/24 08:48:11;;;;;;;1.03;1.03;;;12.40;99.70;11.80;95112.00;;;;5013680;28;20192;-61
2023/03/24 08:50:42;;;;;;;0.70;0.70;;;12.20;99.90;11.60;95116.00;;;;5013546;28;20224;-59
2023/03/24 08:53:11;;;;;;;0.50;0.50;;;;;11.40;95116.00;;;;5012626;28;20205;-59
2023/03/24 08:55:40;;;;;;;0.70;0.70;;;11.90;99.90;11.40;95106.00;;;;5012349;28;20338;-57
2023/03/24 08:58:08;;;;;;;0.50;0.50;;;12.10;99.90;11.60;95104.00;;;;5013791;28;20197;-57
2023/03/24 09:00:35;;;;;;;0.43;0.43;;;12.10;99.90;11.40;95108.00;;;;5013400;28;20221;-57
2023/03/24 09:03:05;;;;;;;1.13;0.90;;;;;11.40;95116.00;;;;5012681;28;20304;-57
2023/03/24 09:05:33;;;;;;;0.80;0.80;;;;;11.40;95120.00;;;;5013519;28;20197;-57
2023/03/24 09:08:02;;;;;;;0.60;0.60;;;;;11.40;95106.00;;;;5012111;28;20236;-58
2023/03/24 09:10:29;;;;;;;0.60;0.60;;;;;11.30;95098.00;;;;5013843;28;20219;-58
2023/03/24 09:12:57;;;;;;;0.63;0.63;;;;;11.40;95097.00;;;;5013495;28;20224;-57
2023/03/24 09:15:25;;;;;;;0.60;0.60;;;;;11.30;95111.00;;;;5013359;28;20200;-58
2023/03/24 09:17:53;;;;;;;0.60;0.60;;;11.90;99.90;11.40;95105.00;;;;5013347;28;20203;-58
2023/03/24 09:20:22;;;;;;;0.70;0.70;;;;;11.50;95117.00;;;;5013184;28;20209;-56
2023/03/24 09:22:50;;;;;;;0.70;0.70;;;12.10;99.80;11.60;95108.00;;;;5013406;28;20255;-57
2023/03/24 09:25:20;;;;;;;0.97;0.90;;;12.30;99.90;11.90;95079.00;;;;5013236;28;20197;-57
2023/03/24 09:27:49;;;;;;;0.60;0.60;;;;;11.90;95084.00;;;;5013508;28;20192;-57
2023/03/24 09:30:18;;;;;;;0.60;0.60;;;12.60;97.60;12.10;95104.00;;;;5013126;28;20224;-56
2023/03/24 09:32:46;;;;;;;0.70;0.70;;;;;12.00;95109.00;;;;5013422;28;20732;-57
2023/03/24 09:35:14;;;;;;;0.83;0.83;;;12.60;95.50;12.00;95100.00;;;;5013150;28;20196;-57
2023/03/24 09:37:43;;;;;;;0.80;0.80;;;12.80;94.10;12.20;95087.00;;;;5013073;28;20203;-57
2023/03/24 09:40:19;;;;;;;0.80;0.80;;;12.70;94.90;12.30;95092.00;;;;5011760;28;20704;-56
2023/03/24 09:42:54;;;;;;;0.60;0.60;;;13.00;94.10;12.50;95093.00;;;;5013179;28;20201;-56
2023/03/24 09:45:23;;;;;;;0.53;0.53;;;13.40;93.30;13.10;95084.00;;;;5013053;28;20174;-57
2023/03/24 09:47:56;;;;;;;0.60;0.60;;;;;12.90;95084.00;;;;5013096;28;20681;-57
2023/03/24 09:50:27;;;;;;;0.77;0.77;;;;;13.40;95070.00;;;;5015298;28;20244;-57
2023/03/24 09:53:02;;;;;;;0.93;0.93;;;;;13.50;95096.00;;;;5017044;28;20181;-57
2023/03/24 09:55:29;;;;;;;0.77;0.77;;;;;13.00;95110.00;;;;5017325;28;20228;-56
2023/03/24 09:58:01;;;;;;;0.70;0.70;;;;;12.80;95098.00;;;;5016771;28;20277;-57
2023/03/24 10:00:30;;;;;;;0.50;0.50;;;;;12.70;95088.00;;;;5016685;28;20217;-57
2023/03/24 10:03:01;;;;;;;0.50;0.50;;;;;12.70;95096.00;;;;5016534;28;20221;-56
2023/03/24 10:05:36;;;;;;;0.60;0.60;;;;;12.50;95093.00;;;;5015403;28;20204;-56
2023/03/24 10:08:15;;;;;;;0.67;0.67;;;;;12.60;95092.00;;;;5016589;28;20181;-57
2023/03/24 10:10:54;;;;;;;0.50;0.50;;;;;12.90;95091.00;;;;5016477;28;20217;-56
2023/03/24 10:13:30;;;;;;;0.93;0.93;;;;;12.80;95092.00;;;;5016723;28;20178;-57
2023/03/24 10:16:07;;;;;;;1.00;1.00;;;;;12.90;95108.00;;;;5016925;28;20186;-57
2023/03/24 10:18:40;;;;;;;0.60;0.60;;;;;12.80;95107.00;;;;5016443;28;20196;-57
2023/03/24 10:21:17;;;;;;;0.67;0.67;;;13.50;90.30;12.80;95111.00;;;;5016862;28;20178;-57
2023/03/24 10:23:55;;;;;;;0.70;0.70;;;;;12.80;95114.00;;;;5016477;28;20252;-56
2023/03/24 10:26:38;;;;;;;0.87;0.87;;;13.40;90.90;12.70;95115.00;;;;5016459;28;20189;-57
2023/03/24 10:29:22;;;;;;;0.73;0.73;;;13.30;91.70;12.70;95100.00;;;;5016361;28;20220;-57
2023/03/24 10:31:56;;;;;;;1.67;1.63;;;13.20;90.70;12.60;95110.00;;;;5016170;28;20240;-57
2023/03/24 10:34:29;;;;;;;0.60;0.60;;;;;12.60;95125.00;;;;5016429;28;20520;-56
2023/03/24 10:36:59;;;;;;;0.60;0.60;;;;;12.60;95115.00;;;;5014778;28;20186;-57
2023/03/24 10:39:28;;;;;;;0.97;0.97;;;;;12.80;95128.00;;;;5016698;28;20580;-57
2023/03/24 10:41:58;;;;;;;0.50;0.50;;;;;12.80;95114.00;;;;5015855;28;20194;-57
2023/03/24 10:44:26;;;;;;;0.60;0.60;;;;;13.10;95129.00;;;;5015869;28;20197;-56
2023/03/24 10:46:57;;;;;;;0.83;0.80;;;;;12.80;95128.00;;;;5015829;28;20225;-57
2023/03/24 10:49:25;;;;;;;1.00;0.77;;;13.70;89.50;13.50;95129.00;;;;5030492;22;20232;-71
2023/03/24 10:51:55;;;;;;;0.50;0.50;;;;;14.00;95127.00;;;;5056005;28;20208;-72
2023/03/24 10:54:24;;;;;;;0.70;0.70;;;;;13.40;95129.00;;;;5055663;28;20196;-70
2023/03/24 10:57:02;;;;;;;0.57;0.57;;;;;13.80;95127.00;;;;5055351;28;20656;-70
2023/03/24 10:59:36;;;;;;;0.60;0.60;;;14.10;86.00;13.60;95128.00;;;;5055629;28;20698;-71
2023/03/24 11:02:17;;;;;;;0.50;0.50;;;14.50;87.30;14.00;95125.00;;;;5054696;28;20607;-71
2023/03/24 11:04:52;;;;;;;0.60;0.60;;;14.40;85.50;14.10;95114.00;;;;5053923;28;20224;-71
2023/03/24 11:07:21;;;;;;;0.70;0.70;;;;;14.40;95117.00;;;;5055392;28;20536;-71
2023/03/24 11:09:59;;;;;;;0.57;0.57;;;;;14.60;95127.00;;;;5055203;28;20390;-70
2023/03/24 11:12:29;;;;;;;0.63;0.63;;;;;14.10;95134.00;;;;5055430;28;20204;-70
2023/03/24 11:15:16;;;;;;;0.50;0.50;;;;;14.10;95154.00;;;;5055366;28;20191;-71
2023/03/24 11:17:44;;;;;;;0.73;0.73;;;;;13.40;95164.00;;;;5037057;28;20184;-71
2023/03/24 11:20:18;;;;;;;0.40;0.40;;;;;13.10;95149.00;;;;5055064;28;20282;-70
2023/03/24 11:22:57;;;;;;;0.80;0.80;;;;;12.90;95147.00;;;;5055312;28;20290;-72
2023/03/24 11:25:27;;;;;;;0.90;0.90;;;;;13.00;95147.00;;;;5054835;28;20181;-72
2023/03/24 11:28:00;;;;;;;0.67;0.67;;;;;13.00;95158.00;;;;5054994;28;20180;-71
2023/03/24 11:30:33;;;;;;;0.70;0.70;;;;;12.70;95160.00;;;;5054870;28;20220;-71
2023/03/24 11:33:02;;;;;;;0.60;0.60;;;13.30;94.10;13.00;95155.00;;;;5054998;28;20176;-72
2023/03/24 11:35:31;;;;;;;0.80;0.80;;;13.60;94.60;13.00;95155.00;;;;5054864;28;20667;-72
2023/03/24 11:38:06;;;;;;;0.83;0.83;;;13.60;85.80;13.00;95148.00;;;;5054646;28;20187;-72
2023/03/24 11:40:33;;;;;;;0.60;0.60;;;13.80;85.00;13.40;95131.00;;;;5036647;28;20215;-72
2023/03/24 11:43:03;;;;;;;0.50;0.50;;;;;13.40;95143.00;;;;5054392;28;20314;-71
2023/03/24 11:45:38;;;;;;;0.50;0.50;;;13.80;85.40;13.30;95145.00;;;;5036564;28;20204;-72
2023/03/24 11:48:24;;;;;;;0.50;0.50;;;13.80;83.60;13.20;95138.00;;;;5054701;28;20180;-72
2023/03/24 11:50:52;;;;;;;0.53;0.53;;;;;12.90;95152.00;;;;5054150;28;20219;-71
2023/03/24 11:53:24;;;;;;;0.70;0.70;;;;;13.10;95138.00;;;;5054229;28;20200;-71
2023/03/24 11:55:56;;;;;;;0.60;0.60;;;;;13.10;95140.00;;;;5054230;28;20204;-72
2023/03/24 11:58:36;;;;;;;0.70;0.70;;;13.50;83.70;12.90;95139.00;;;;5054499;28;20191;-72
2023/03/24 12:01:12;;;;;;;0.60;0.60;;;;;13.10;95156.00;;;;5054148;28;20214;-72
2023/03/24 12:04:07;;;;;;;0.70;0.70;;;;;12.90;95142.00;;;;5054282;28;20612;-72
2023/03/24 12:06:55;;;;;;;0.73;0.73;;;13.60;81.60;13.00;95146.00;;;;5054174;28;20181;-72
2023/03/24 12:09:31;;;;;;;0.60;0.60;;;;;13.10;95146.00;;;;5053895;28;20238;-71
2023/03/24 12:12:21;;;;;;;0.60;0.60;;;;;13.00;95132.00;;;;5053335;28;20192;-71
2023/03/24 12:15:07;;;;;;;0.57;0.57;;;;;12.50;95211.00;;;;5036170;28;20666;-72
2023/03/24 12:17:41;;;;;;;0.50;0.50;;;;;12.70;95153.00;;;;5036016;28;20191;-70
2023/03/24 12:20:21;;;;;;;0.53;0.53;;;;;13.20;95149.00;;;;5054247;28;20212;-70
2023/03/24 12:23:01;;;;;;;0.50;0.50;;;;;12.90;95175.00;;;;5054055;28;20258;-72
2023/03/24 12:25:54;;;;;;;0.63;0.63;;;;;13.60;95133.00;;;;5053640;28;20234;-71
2023/03/24 12:28:39;;;;;;;0.50;0.50;;;;;13.90;95164.00;;;;5053698;28;20632;-70